Terminal Aerodrome Forecast
Issued by NWS Charleston, WV

Home | Current Version | Previous Version | Text Only | Print | Product List | Glossary On
Versions: 1 2 3 4 5 6 7 8 9 10 11 12 13 14 15 16 17 18 19 20 21
755
FTUS41 KRLX 071720
TAFPKB
TAF
KPKB 071720Z 0718/0818 21006KT P6SM SCT250
     FM080300 17004KT P6SM BKN040
     FM081200 19004KT 4SM -SHSN OVC030
     FM081300 19004KT 2SM -SHSN BR OVC015
     FM081600 21006KT 3SM -SHRASN BR OVC015
     FM081700 22006KT 6SM -SHRA BR OVC015=

USA.gov is the U.S. government's official web portal to all federal, state and local government web resources and services.